Time;durP1;ratioP1;P1;durP2;ratioP2;P2;SDS_P1;SDS_P2;PMS_P1;PMS_P2;Temp;Humidity;BMP_temperature;BMP_pressure;BME280_temperature;BME280_humidity;BME280_pressure;Samples;Min_cycle;Max_cycle;Signal;HPM_P1;HPM_P2
2021/12/01 00:02:23;;;;;;;0.10;0.10;;;;;;;;;;5042153;28;20090;-70
2021/12/01 00:04:49;;;;;;;0.10;0.10;;;;;;;;;;5032770;28;20109;-70
2021/12/01 00:07:15;;;;;;;0.10;0.10;;;;;;;;;;5033829;28;20036;-69
2021/12/01 00:09:41;;;;;;;0.17;0.17;;;;;;;;;;5043450;28;20056;-70
2021/12/01 00:12:07;;;;;;;0.00;0.00;;;;;;;;;;5032414;28;20037;-70
2021/12/01 00:14:33;;;;;;;0.10;0.10;;;;;;;;;;5037409;28;20028;-70
2021/12/01 00:16:59;;;;;;;0.52;0.38;;;;;;;;;;5040381;28;20104;-70
2021/12/01 00:19:25;;;;;;;0.00;0.00;;;;;;;;;;5044946;28;20044;-70
2021/12/01 00:21:51;;;;;;;0.90;0.88;;;;;;;;;;5036960;28;20033;-70
2021/12/01 00:24:17;;;;;;;0.10;0.10;;;;;;;;;;5042861;28;20037;-71
2021/12/01 00:26:43;;;;;;;0.20;0.20;;;;;;;;;;5042334;28;20029;-70
2021/12/01 00:29:09;;;;;;;0.30;0.30;;;;;;;;;;5033771;28;20029;-70
2021/12/01 00:31:35;;;;;;;0.10;0.10;;;;;;;;;;5039122;28;20025;-70
2021/12/01 00:34:01;;;;;;;0.75;0.75;;;;;;;;;;5030075;28;20062;-70
2021/12/01 00:36:31;;;;;;;0.10;0.10;;;;;;;;;;5030865;28;20022;-70
2021/12/01 00:38:57;;;;;;;0.10;0.10;;;;;;;;;;5037183;28;20387;-70
2021/12/01 00:41:23;;;;;;;0.00;0.00;;;;;;;;;;5035616;28;20029;-70
2021/12/01 00:43:50;;;;;;;0.20;0.20;;;;;;;;;;5029706;28;20029;-70
2021/12/01 00:46:36;;;;;;;0.30;0.30;;;;;;;;;;5031001;28;20033;-70
2021/12/01 00:49:02;;;;;;;2.20;1.23;;;;;;;;;;5038249;28;20021;-70
2021/12/01 00:51:28;;;;;;;0.10;0.10;;;;;;;;;;5046843;28;20026;-70
2021/12/01 00:53:54;;;;;;;0.10;0.10;;;;;;;;;;5042001;28;20037;-70
2021/12/01 00:56:20;;;;;;;0.10;0.10;;;;;;;;;;5036501;28;20399;-71
2021/12/01 00:58:46;;;;;;;0.10;0.10;;;;;;;;;;5049155;28;20025;-71
2021/12/01 01:01:12;;;;;;;0.10;0.10;;;;;;;;;;5032343;28;20036;-71
2021/12/01 01:03:39;;;;;;;0.10;0.10;;;;;;;;;;5033227;28;20037;-71
2021/12/01 01:06:05;;;;;;;0.20;0.20;;;;;;;;;;5029481;28;20052;-71
2021/12/01 01:08:31;;;;;;;0.55;0.55;;;;;;;;;;5028891;28;20547;-71
2021/12/01 01:11:09;;;;;;;0.08;0.08;;;;;;;;;;5036597;28;20101;-71
2021/12/01 01:16:24;;;;;;;0.13;0.13;;;;;;;;;;5038092;28;20040;-70
2021/12/01 01:18:52;;;;;;;0.50;0.50;;;;;;;;;;5032729;28;20484;-71
2021/12/01 01:21:18;;;;;;;0.50;0.30;;;;;;;;;;5032283;28;20033;-70
2021/12/01 01:23:44;;;;;;;0.22;0.22;;;;;;;;;;5041097;28;20048;-70
2021/12/01 01:26:12;;;;;;;0.10;0.10;;;;;;;;;;5032185;28;20480;-70
2021/12/01 01:28:38;;;;;;;0.20;0.20;;;;;;;;;;5034876;28;20039;-70
2021/12/01 01:31:04;;;;;;;0.25;0.25;;;;;;;;;;5034397;28;20128;-70
2021/12/01 01:33:30;;;;;;;0.05;0.05;;;;;;;;;;5032575;28;20472;-71
2021/12/01 01:35:56;;;;;;;0.45;0.45;;;;;;;;;;5040576;28;20463;-71
2021/12/01 01:38:22;;;;;;;0.80;0.80;;;;;;;;;;5038934;28;20128;-70
2021/12/01 01:40:48;;;;;;;2.45;1.85;;;;;;;;;;5032638;28;20109;-71
2021/12/01 01:43:14;;;;;;;0.10;0.10;;;;;;;;;;5031953;28;20120;-73
2021/12/01 01:45:40;;;;;;;0.10;0.10;;;;;;;;;;5037222;28;20056;-70
2021/12/01 01:48:10;;;;;;;0.28;0.28;;;;;;;;;;5037507;28;20083;-70
2021/12/01 01:50:37;;;;;;;0.10;0.10;;;;;;;;;;5044550;28;20040;-70
2021/12/01 01:53:03;;;;;;;0.10;0.10;;;;;;;;;;5031885;28;20483;-71
2021/12/01 01:55:29;;;;;;;0.00;0.00;;;;;;;;;;5043010;28;20068;-70
2021/12/01 01:57:55;;;;;;;0.13;0.13;;;;;;;;;;5041947;28;20033;-71
2021/12/01 02:00:21;;;;;;;0.10;0.10;;;;;;;;;;5039841;28;20036;-70
2021/12/01 02:02:48;;;;;;;0.10;0.10;;;;;;;;;;5045424;28;20029;-70
2021/12/01 02:05:13;;;;;;;0.10;0.10;;;;;;;;;;5052295;28;20041;-70
2021/12/01 02:07:40;;;;;;;0.13;0.13;;;;;;;;;;5036670;28;20044;-70
2021/12/01 02:10:06;;;;;;;0.20;0.20;;;;;;;;;;5034158;28;20101;-71
2021/12/01 02:12:32;;;;;;;0.75;0.75;;;;;;;;;;5036476;28;20116;-70
2021/12/01 02:14:58;;;;;;;0.00;0.00;;;;;;;;;;5044939;28;20159;-70
2021/12/01 02:17:24;;;;;;;0.10;0.10;;;;;;;;;;5041914;28;20032;-70
2021/12/01 02:19:53;;;;;;;0.20;0.20;;;;;;;;;;5043942;28;20529;-70
2021/12/01 02:22:19;;;;;;;0.10;0.10;;;;;;;;;;5043736;28;20042;-70
2021/12/01 02:24:46;;;;;;;0.10;0.10;;;;;;;;;;5035367;28;20052;-70
2021/12/01 02:27:13;;;;;;;0.10;0.10;;;;;;;;;;5043105;28;20100;-70
2021/12/01 02:29:39;;;;;;;0.08;0.08;;;;;;;;;;5035107;28;20111;-70
2021/12/01 02:32:08;;;;;;;0.00;0.00;;;;;;;;;;5031567;28;20053;-70
2021/12/01 02:34:39;;;;;;;11.02;1.83;;;;;;;;;;5040423;28;20035;-70
2021/12/01 02:37:06;;;;;;;0.63;0.63;;;;;;;;;;5045706;28;20390;-70
2021/12/01 02:39:32;;;;;;;0.88;0.57;;;;;;;;;;5042488;28;20455;-70
2021/12/01 02:42:01;;;;;;;0.20;0.20;;;;;;;;;;5034558;28;20527;-70
2021/12/01 02:44:27;;;;;;;0.00;0.00;;;;;;;;;;5031184;28;20036;-70
2021/12/01 02:46:54;;;;;;;0.22;0.22;;;;;;;;;;5038955;28;20033;-70
2021/12/01 02:49:21;;;;;;;0.13;0.13;;;;;;;;;;5050340;28;20025;-70
2021/12/01 02:51:48;;;;;;;0.05;0.05;;;;;;;;;;5038184;28;20025;-70
2021/12/01 02:54:14;;;;;;;0.10;0.10;;;;;;;;;;5037596;28;20060;-70
2021/12/01 02:56:45;;;;;;;0.20;0.20;;;;;;;;;;5035888;28;20025;-70
2021/12/01 02:59:11;;;;;;;0.10;0.10;;;;;;;;;;5034241;28;20087;-70
2021/12/01 03:01:37;;;;;;;0.60;0.30;;;;;;;;;;5035443;28;20030;-70
2021/12/01 03:04:03;;;;;;;0.00;0.00;;;;;;;;;;5033408;28;20399;-70
2021/12/01 03:06:29;;;;;;;0.15;0.15;;;;;;;;;;5034147;28;20029;-70
2021/12/01 03:08:57;;;;;;;0.10;0.10;;;;;;;;;;5030954;28;20075;-70
2021/12/01 03:11:24;;;;;;;0.30;0.30;;;;;;;;;;5045983;28;20025;-70
2021/12/01 03:13:50;;;;;;;0.00;0.00;;;;;;;;;;5042911;28;20078;-70
2021/12/01 03:16:16;;;;;;;0.40;0.40;;;;;;;;;;5038097;28;20430;-70
2021/12/01 03:18:44;;;;;;;0.00;0.00;;;;;;;;;;5036053;28;20738;-70
2021/12/01 03:21:11;;;;;;;0.00;0.00;;;;;;;;;;5037745;28;20380;-70
2021/12/01 03:23:37;;;;;;;0.70;0.32;;;;;;;;;;5043702;28;20400;-70
2021/12/01 03:26:03;;;;;;;0.00;0.00;;;;;;;;;;5049500;28;20388;-70
2021/12/01 03:28:29;;;;;;;0.00;0.00;;;;;;;;;;5045358;28;20021;-70
2021/12/01 03:30:55;;;;;;;0.55;0.55;;;;;;;;;;5034506;28;20040;-70
2021/12/01 03:33:22;;;;;;;0.55;0.55;;;;;;;;;;5030342;28;20384;-71
2021/12/01 03:35:49;;;;;;;0.10;0.10;;;;;;;;;;5035161;28;20025;-70
2021/12/01 03:38:16;;;;;;;0.30;0.20;;;;;;;;;;5037221;28;20388;-69
2021/12/01 03:40:42;;;;;;;0.10;0.10;;;;;;;;;;5029520;28;20258;-70
2021/12/01 03:43:08;;;;;;;0.30;0.30;;;;;;;;;;5046039;28;20035;-70
2021/12/01 03:45:34;;;;;;;0.30;0.30;;;;;;;;;;5034114;28;20108;-70
2021/12/01 03:48:00;;;;;;;0.05;0.05;;;;;;;;;;5034160;28;20029;-70
2021/12/01 03:50:26;;;;;;;0.20;0.20;;;;;;;;;;5031664;28;20409;-70
2021/12/01 03:52:52;;;;;;;0.75;0.47;;;;;;;;;;5035568;28;20040;-70
2021/12/01 03:55:18;;;;;;;0.00;0.00;;;;;;;;;;5036167;28;20036;-70
2021/12/01 03:57:44;;;;;;;0.17;0.17;;;;;;;;;;5039310;28;20735;-70
2021/12/01 04:00:11;;;;;;;0.10;0.10;;;;;;;;;;5029759;28;20024;-70
2021/12/01 04:02:37;;;;;;;0.00;0.00;;;;;;;;;;5044933;28;20394;-70
2021/12/01 04:05:03;;;;;;;1.00;0.52;;;;;;;;;;5046358;28;20028;-70
2021/12/01 04:07:29;;;;;;;1.35;1.27;;;;;;;;;;5029788;28;20079;-70
2021/12/01 04:09:55;;;;;;;0.10;0.10;;;;;;;;;;5028970;28;20030;-70
2021/12/01 04:12:21;;;;;;;0.50;0.50;;;;;;;;;;5034410;28;20025;-70
2021/12/01 04:14:47;;;;;;;0.00;0.00;;;;;;;;;;5029354;28;20025;-70
2021/12/01 04:17:13;;;;;;;14.70;0.98;;;;;;;;;;5036376;28;20037;-70
2021/12/01 04:19:39;;;;;;;0.10;0.10;;;;;;;;;;5040388;28;20399;-71
2021/12/01 04:22:05;;;;;;;0.03;0.03;;;;;;;;;;5037584;28;20469;-70
2021/12/01 04:24:31;;;;;;;0.10;0.10;;;;;;;;;;5035115;28;20026;-71
2021/12/01 04:26:57;;;;;;;3.97;1.27;;;;;;;;;;5040452;28;20064;-71
2021/12/01 04:29:25;;;;;;;0.00;0.00;;;;;;;;;;5038384;28;20022;-70
2021/12/01 04:31:51;;;;;;;0.10;0.10;;;;;;;;;;5040406;28;20030;-70
2021/12/01 04:34:17;;;;;;;0.10;0.10;;;;;;;;;;5045074;28;20032;-71
2021/12/01 04:36:44;;;;;;;0.15;0.15;;;;;;;;;;5031825;28;20506;-71
2021/12/01 04:39:13;;;;;;;0.10;0.10;;;;;;;;;;5032906;28;20025;-71
2021/12/01 04:41:41;;;;;;;0.10;0.10;;;;;;;;;;5032350;28;20033;-71
2021/12/01 04:44:12;;;;;;;2.20;1.48;;;;;;;;;;5040287;28;20029;-71
2021/12/01 04:46:42;;;;;;;0.20;0.20;;;;;;;;;;5039053;28;20036;-71
2021/12/01 04:49:09;;;;;;;0.10;0.10;;;;;;;;;;5037904;28;20443;-71
2021/12/01 04:51:35;;;;;;;0.05;0.05;;;;;;;;;;5033553;28;20014;-71
2021/12/01 04:54:02;;;;;;;0.10;0.10;;;;;;;;;;5034650;28;20052;-71
2021/12/01 04:56:28;;;;;;;0.85;0.85;;;;;;;;;;5037205;28;20060;-70
2021/12/01 04:58:54;;;;;;;1.65;1.10;;;;;;;;;;5029157;28;20599;-70
2021/12/01 05:01:20;;;;;;;0.40;0.40;;;;;;;;;;5033110;28;20029;-71
2021/12/01 05:03:46;;;;;;;3.65;1.25;;;;;;;;;;5029423;28;20479;-71
2021/12/01 05:06:13;;;;;;;0.10;0.10;;;;;;;;;;5028698;28;20074;-71
2021/12/01 05:08:39;;;;;;;0.03;0.03;;;;;;;;;;5047466;28;20033;-71
2021/12/01 05:11:05;;;;;;;0.65;0.65;;;;;;;;;;5038490;28;20131;-71
2021/12/01 05:13:31;;;;;;;0.20;0.20;;;;;;;;;;5029060;28;20059;-71
2021/12/01 05:15:57;;;;;;;0.30;0.30;;;;;;;;;;5034715;28;20052;-70
2021/12/01 05:18:23;;;;;;;0.03;0.03;;;;;;;;;;5047449;28;20043;-71
2021/12/01 05:20:49;;;;;;;4.88;1.25;;;;;;;;;;5037523;28;20073;-72
2021/12/01 05:23:15;;;;;;;1.55;1.33;;;;;;;;;;5036177;28;20037;-72
2021/12/01 05:25:42;;;;;;;0.17;0.17;;;;;;;;;;5035063;28;20099;-71
2021/12/01 05:28:08;;;;;;;0.00;0.00;;;;;;;;;;5047522;28;20071;-71
2021/12/01 05:30:34;;;;;;;0.03;0.03;;;;;;;;;;5038052;28;20020;-71
2021/12/01 05:33:05;;;;;;;0.63;0.63;;;;;;;;;;5033958;28;20104;-71
2021/12/01 05:35:31;;;;;;;0.10;0.10;;;;;;;;;;5038764;28;20028;-72
2021/12/01 05:37:57;;;;;;;0.00;0.00;;;;;;;;;;5045970;28;20021;-71
2021/12/01 05:40:23;;;;;;;0.00;0.00;;;;;;;;;;5040383;28;20087;-71
2021/12/01 05:42:49;;;;;;;0.15;0.15;;;;;;;;;;5040829;28;20030;-71
2021/12/01 05:45:15;;;;;;;0.10;0.10;;;;;;;;;;5034041;28;20112;-72
2021/12/01 05:47:41;;;;;;;0.10;0.10;;;;;;;;;;5030578;28;20069;-72
2021/12/01 05:50:11;;;;;;;0.00;0.00;;;;;;;;;;5037363;28;20380;-72
2021/12/01 05:52:37;;;;;;;0.03;0.03;;;;;;;;;;5033708;28;20032;-72
2021/12/01 05:55:04;;;;;;;6.55;1.02;;;;;;;;;;5031243;28;20039;-71
2021/12/01 05:57:30;;;;;;;0.15;0.15;;;;;;;;;;5035186;28;20025;-71
2021/12/01 05:59:56;;;;;;;0.28;0.28;;;;;;;;;;5032498;28;20047;-71
2021/12/01 06:02:21;;;;;;;2.13;0.73;;;;;;;;;;5045580;28;20036;-72
2021/12/01 06:04:48;;;;;;;0.10;0.10;;;;;;;;;;5030962;28;20042;-73
2021/12/01 06:07:14;;;;;;;0.00;0.00;;;;;;;;;;5028083;28;20120;-73
2021/12/01 06:09:41;;;;;;;0.00;0.00;;;;;;;;;;5038120;28;20151;-72
2021/12/01 06:12:07;;;;;;;0.20;0.20;;;;;;;;;;5041045;28;20032;-73
2021/12/01 06:14:34;;;;;;;0.10;0.10;;;;;;;;;;5040155;28;20451;-72
2021/12/01 06:17:00;;;;;;;0.55;0.50;;;;;;;;;;5039240;28;20060;-72
2021/12/01 06:19:26;;;;;;;0.10;0.10;;;;;;;;;;5040449;28;20021;-72
2021/12/01 06:21:52;;;;;;;0.00;0.00;;;;;;;;;;5034666;28;20056;-71
2021/12/01 06:24:18;;;;;;;0.05;0.05;;;;;;;;;;5029747;28;20353;-71
2021/12/01 06:26:44;;;;;;;0.00;0.00;;;;;;;;;;5042702;28;20025;-72
2021/12/01 06:29:10;;;;;;;0.00;0.00;;;;;;;;;;5036283;28;20018;-72
2021/12/01 06:31:36;;;;;;;1.35;0.57;;;;;;;;;;5032207;28;20557;-72
2021/12/01 06:34:02;;;;;;;0.70;0.55;;;;;;;;;;5036056;28;20472;-72
2021/12/01 06:36:29;;;;;;;0.10;0.10;;;;;;;;;;5026712;28;20087;-72
2021/12/01 06:38:55;;;;;;;0.45;0.45;;;;;;;;;;5038908;28;20032;-72
2021/12/01 06:41:21;;;;;;;0.00;0.00;;;;;;;;;;5032724;28;20064;-69
2021/12/01 06:43:46;;;;;;;0.03;0.03;;;;;;;;;;5037763;28;20021;-70
2021/12/01 06:46:12;;;;;;;0.45;0.45;;;;;;;;;;5044291;28;20025;-71
2021/12/01 06:48:38;;;;;;;0.00;0.00;;;;;;;;;;5034469;28;20029;-71
2021/12/01 06:51:04;;;;;;;0.10;0.10;;;;;;;;;;5034820;28;20120;-72
2021/12/01 06:53:30;;;;;;;0.00;0.00;;;;;;;;;;5038742;28;20025;-71
2021/12/01 06:55:56;;;;;;;0.10;0.10;;;;;;;;;;5044686;28;20137;-71
2021/12/01 06:58:22;;;;;;;0.28;0.22;;;;;;;;;;5043230;28;20025;-72
2021/12/01 07:00:48;;;;;;;0.00;0.00;;;;;;;;;;5033541;28;20384;-71
2021/12/01 07:03:14;;;;;;;0.13;0.13;;;;;;;;;;5036390;28;20028;-71
2021/12/01 07:05:40;;;;;;;0.10;0.10;;;;;;;;;;5041562;28;20387;-71
2021/12/01 07:08:06;;;;;;;0.10;0.10;;;;;;;;;;5033024;28;20048;-71
2021/12/01 07:10:32;;;;;;;0.10;0.05;;;;;;;;;;5042632;28;20025;-71
2021/12/01 07:12:58;;;;;;;0.20;0.20;;;;;;;;;;5037021;28;20321;-71
2021/12/01 07:15:24;;;;;;;0.10;0.10;;;;;;;;;;5046793;28;20032;-72
2021/12/01 07:17:50;;;;;;;0.10;0.10;;;;;;;;;;5049671;28;20407;-71
2021/12/01 07:20:16;;;;;;;0.10;0.10;;;;;;;;;;5047805;28;20051;-71
2021/12/01 07:22:42;;;;;;;0.57;0.57;;;;;;;;;;5031085;28;20045;-72
2021/12/01 07:25:08;;;;;;;0.30;0.22;;;;;;;;;;5030933;28;20029;-71
2021/12/01 07:27:34;;;;;;;0.00;0.00;;;;;;;;;;5030118;28;20035;-72
2021/12/01 07:30:00;;;;;;;0.20;0.20;;;;;;;;;;5029893;28;20175;-71
2021/12/01 07:32:26;;;;;;;0.00;0.00;;;;;;;;;;5036323;28;20472;-71
2021/12/01 07:34:53;;;;;;;0.10;0.10;;;;;;;;;;5048027;28;20121;-72
2021/12/01 07:37:19;;;;;;;0.10;0.10;;;;;;;;;;5045375;28;20056;-72
2021/12/01 07:39:45;;;;;;;0.10;0.10;;;;;;;;;;5044088;28;20055;-71
2021/12/01 07:42:12;;;;;;;1.30;1.25;;;;;;;;;;5037501;28;20039;-71
2021/12/01 07:44:38;;;;;;;0.17;0.17;;;;;;;;;;5046106;28;20095;-71
2021/12/01 07:47:04;;;;;;;0.00;0.00;;;;;;;;;;5029356;28;20022;-71
2021/12/01 07:49:30;;;;;;;0.10;0.10;;;;;;;;;;5029206;28;20439;-71
2021/12/01 07:51:56;;;;;;;0.75;0.47;;;;;;;;;;5035108;28;20029;-71
2021/12/01 07:54:22;;;;;;;0.30;0.30;;;;;;;;;;5033363;28;20083;-72
2021/12/01 07:56:48;;;;;;;0.05;0.05;;;;;;;;;;5047515;28;20041;-71
2021/12/01 07:59:17;;;;;;;0.00;0.00;;;;;;;;;;5035185;28;20228;-71
2021/12/01 08:01:44;;;;;;;0.65;0.63;;;;;;;;;;5038211;28;20032;-71
2021/12/01 08:04:10;;;;;;;0.15;0.15;;;;;;;;;;5032299;28;20045;-71
2021/12/01 08:06:37;;;;;;;0.17;0.17;;;;;;;;;;5029347;28;20018;-71
2021/12/01 08:09:03;;;;;;;0.10;0.10;;;;;;;;;;5030288;28;20022;-72
2021/12/01 08:11:29;;;;;;;0.00;0.00;;;;;;;;;;5030484;28;20455;-71
2021/12/01 08:13:55;;;;;;;0.30;0.30;;;;;;;;;;5047938;28;20136;-69
2021/12/01 08:16:21;;;;;;;0.08;0.08;;;;;;;;;;5032029;28;20026;-73
2021/12/01 08:18:56;;;;;;;0.00;0.00;;;;;;;;;;5046119;28;20391;-73
2021/12/01 08:21:23;;;;;;;0.17;0.17;;;;;;;;;;5030725;28;20477;-73
2021/12/01 08:23:48;;;;;;;0.30;0.30;;;;;;;;;;5029862;28;20039;-73
2021/12/01 08:26:15;;;;;;;0.20;0.20;;;;;;;;;;5036282;28;20115;-74
2021/12/01 08:28:42;;;;;;;0.20;0.20;;;;;;;;;;5048823;28;20032;-72
2021/12/01 08:31:08;;;;;;;0.40;0.32;;;;;;;;;;5034012;28;20021;-74
2021/12/01 08:33:34;;;;;;;0.00;0.00;;;;;;;;;;5029006;28;20270;-74
2021/12/01 08:36:00;;;;;;;0.20;0.20;;;;;;;;;;5035640;28;20025;-72
2021/12/01 08:38:26;;;;;;;0.00;0.00;;;;;;;;;;5034121;28;20403;-72
2021/12/01 08:40:52;;;;;;;1.00;0.88;;;;;;;;;;5037426;28;20383;-73
2021/12/01 08:43:18;;;;;;;0.00;0.00;;;;;;;;;;5028866;28;20492;-72
2021/12/01 08:45:44;;;;;;;0.85;0.85;;;;;;;;;;5024959;28;20164;-72
2021/12/01 08:48:11;;;;;;;0.10;0.10;;;;;;;;;;5030799;28;20026;-71
2021/12/01 08:50:37;;;;;;;0.00;0.00;;;;;;;;;;5032387;28;20020;-72
2021/12/01 08:53:03;;;;;;;0.28;0.28;;;;;;;;;;5048657;28;20021;-72
2021/12/01 08:55:28;;;;;;;0.10;0.10;;;;;;;;;;5048373;28;20021;-72
2021/12/01 08:57:55;;;;;;;0.22;0.22;;;;;;;;;;5031593;28;20387;-73
2021/12/01 09:00:23;;;;;;;0.20;0.20;;;;;;;;;;5029643;28;20040;-72
2021/12/01 09:02:49;;;;;;;0.30;0.30;;;;;;;;;;5031704;28;20030;-72
2021/12/01 09:05:15;;;;;;;0.47;0.47;;;;;;;;;;5030888;28;20024;-72
2021/12/01 09:07:41;;;;;;;0.40;0.40;;;;;;;;;;5032240;28;20029;-72
2021/12/01 09:10:07;;;;;;;0.10;0.10;;;;;;;;;;5041945;28;20029;-72
2021/12/01 09:12:33;;;;;;;0.08;0.08;;;;;;;;;;5048253;28;20033;-72
2021/12/01 09:14:59;;;;;;;0.00;0.00;;;;;;;;;;5048444;28;20037;-73
2021/12/01 09:17:26;;;;;;;0.00;0.00;;;;;;;;;;5047222;28;20025;-72
2021/12/01 09:19:52;;;;;;;0.20;0.20;;;;;;;;;;5039269;28;20029;-71
2021/12/01 09:22:18;;;;;;;0.57;0.28;;;;;;;;;;5028182;28;20155;-72
2021/12/01 09:24:45;;;;;;;0.32;0.30;;;;;;;;;;5028259;28;20484;-73
2021/12/01 09:27:11;;;;;;;0.15;0.15;;;;;;;;;;5028346;28;20022;-72
2021/12/01 09:29:37;;;;;;;0.20;0.20;;;;;;;;;;5039020;28;20026;-72
2021/12/01 09:32:04;;;;;;;0.10;0.10;;;;;;;;;;5028666;28;20476;-72
2021/12/01 09:34:30;;;;;;;0.85;0.52;;;;;;;;;;5031695;28;20030;-72
2021/12/01 09:36:56;;;;;;;0.00;0.00;;;;;;;;;;5031976;28;20029;-72
2021/12/01 09:39:22;;;;;;;0.00;0.00;;;;;;;;;;5032207;28;20040;-72
2021/12/01 09:41:49;;;;;;;0.00;0.00;;;;;;;;;;5032292;28;20038;-72
2021/12/01 09:44:15;;;;;;;0.32;0.32;;;;;;;;;;5031700;28;20080;-72
2021/12/01 09:46:41;;;;;;;0.10;0.10;;;;;;;;;;5031687;28;20056;-72
2021/12/01 09:49:06;;;;;;;0.00;0.00;;;;;;;;;;5038650;28;20021;-72
2021/12/01 09:51:33;;;;;;;0.08;0.08;;;;;;;;;;5045813;28;20034;-72
2021/12/01 09:54:00;;;;;;;0.28;0.28;;;;;;;;;;5032228;28;20029;-72
2021/12/01 09:56:26;;;;;;;0.10;0.10;;;;;;;;;;5051368;28;20025;-71
2021/12/01 09:58:52;;;;;;;0.10;0.10;;;;;;;;;;5051873;28;20098;-72
2021/12/01 10:01:20;;;;;;;0.10;0.10;;;;;;;;;;5051204;28;20667;-72
2021/12/01 10:03:46;;;;;;;0.00;0.00;;;;;;;;;;5042656;28;20070;-72
2021/12/01 10:06:13;;;;;;;0.10;0.10;;;;;;;;;;5051307;28;20029;-72
2021/12/01 10:08:44;;;;;;;0.10;0.10;;;;;;;;;;5051408;28;20090;-72
2021/12/01 10:11:14;;;;;;;0.10;0.10;;;;;;;;;;5051181;28;20484;-72
2021/12/01 10:13:42;;;;;;;0.17;0.17;;;;;;;;;;5048340;28;20033;-72
2021/12/01 10:16:09;;;;;;;0.47;0.45;;;;;;;;;;5031530;28;20291;-72
2021/12/01 10:18:38;;;;;;;1.45;1.00;;;;;;;;;;5031262;28;20813;-73
2021/12/01 10:21:09;;;;;;;0.00;0.00;;;;;;;;;;5031281;28;20550;-73
2021/12/01 10:23:36;;;;;;;0.20;0.20;;;;;;;;;;5031118;28;20806;-72
2021/12/01 10:26:28;;;;;;;0.00;0.00;;;;;;;;;;5032385;28;20087;-73
2021/12/01 10:28:55;;;;;;;0.00;0.00;;;;;;;;;;5030542;28;20037;-72
2021/12/01 10:31:29;;;;;;;0.00;0.00;;;;;;;;;;5031115;28;20021;-72
2021/12/01 10:33:55;;;;;;;0.10;0.10;;;;;;;;;;5038299;28;20025;-73
2021/12/01 10:36:26;;;;;;;0.50;0.35;;;;;;;;;;5035804;28;20029;-72
2021/12/01 10:39:03;;;;;;;0.10;0.10;;;;;;;;;;5031280;28;20496;-72
2021/12/01 10:41:36;;;;;;;0.00;0.00;;;;;;;;;;5030624;28;20396;-73
2021/12/01 10:44:08;;;;;;;0.00;0.00;;;;;;;;;;5030425;28;20029;-73
2021/12/01 10:46:42;;;;;;;0.63;0.63;;;;;;;;;;5032038;28;20245;-73
2021/12/01 10:49:08;;;;;;;1.55;0.45;;;;;;;;;;5031174;28;20030;-72
2021/12/01 10:51:38;;;;;;;0.03;0.03;;;;;;;;;;5030698;28;20402;-73
2021/12/01 10:54:05;;;;;;;0.03;0.03;;;;;;;;;;5030877;28;20507;-73
2021/12/01 10:56:31;;;;;;;0.28;0.28;;;;;;;;;;5042816;28;20415;-73
2021/12/01 10:59:08;;;;;;;0.77;0.77;;;;;;;;;;5030605;28;20115;-72
2021/12/01 11:01:34;;;;;;;0.00;0.00;;;;;;;;;;5033330;28;20087;-72
2021/12/01 11:04:00;;;;;;;0.00;0.00;;;;;;;;;;5030353;28;20626;-73
2021/12/01 11:06:27;;;;;;;0.00;0.00;;;;;;;;;;5030329;28;20034;-73
2021/12/01 11:08:58;;;;;;;0.00;0.00;;;;;;;;;;5030554;28;20032;-72
2021/12/01 11:11:25;;;;;;;0.43;0.43;;;;;;;;;;5030284;28;20080;-73
2021/12/01 11:13:51;;;;;;;0.45;0.43;;;;;;;;;;5034136;28;20087;-73
2021/12/01 11:16:18;;;;;;;0.13;0.13;;;;;;;;;;5033275;28;20017;-72
2021/12/01 11:18:45;;;;;;;0.10;0.10;;;;;;;;;;5049150;28;20404;-73
2021/12/01 11:21:19;;;;;;;0.15;0.15;;;;;;;;;;5049915;28;20025;-72
2021/12/01 11:23:49;;;;;;;0.00;0.00;;;;;;;;;;5035729;28;20091;-73
2021/12/01 11:26:22;;;;;;;0.40;0.40;;;;;;;;;;5030143;28;20087;-72
2021/12/01 11:28:50;;;;;;;0.43;0.43;;;;;;;;;;5030058;28;20469;-72
2021/12/01 11:31:18;;;;;;;0.30;0.30;;;;;;;;;;5029690;28;20060;-72
2021/12/01 11:33:44;;;;;;;0.20;0.20;;;;;;;;;;5038654;28;20025;-73
2021/12/01 11:36:12;;;;;;;0.35;0.35;;;;;;;;;;5049162;28;20021;-73
2021/12/01 11:38:38;;;;;;;0.25;0.25;;;;;;;;;;5035081;28;20060;-73
2021/12/01 11:41:06;;;;;;;0.10;0.10;;;;;;;;;;5040166;28;20033;-73
2021/12/01 11:43:33;;;;;;;0.00;0.00;;;;;;;;;;5031410;28;20033;-71
2021/12/01 11:45:59;;;;;;;0.10;0.10;;;;;;;;;;5029792;28;20108;-72
2021/12/01 11:48:30;;;;;;;0.20;0.15;;;;;;;;;;5029866;28;20392;-72
2021/12/01 11:51:14;;;;;;;0.20;0.20;;;;;;;;;;5040586;28;20024;-71
2021/12/01 11:53:42;;;;;;;0.00;0.00;;;;;;;;;;5047252;28;20063;-71
2021/12/01 11:56:12;;;;;;;0.15;0.15;;;;;;;;;;5039210;28;20021;-72
2021/12/01 11:58:41;;;;;;;0.10;0.10;;;;;;;;;;5035323;28;20060;-72
2021/12/01 12:01:27;;;;;;;0.00;0.00;;;;;;;;;;5037736;28;20063;-71
2021/12/01 12:04:11;;;;;;;0.00;0.00;;;;;;;;;;5041448;28;20021;-72
2021/12/01 12:06:44;;;;;;;0.00;0.00;;;;;;;;;;5029399;28;20112;-71
2021/12/01 12:09:11;;;;;;;0.20;0.20;;;;;;;;;;5029221;28;20025;-72
2021/12/01 12:11:44;;;;;;;0.00;0.00;;;;;;;;;;5028891;28;20030;-72
2021/12/01 12:14:15;;;;;;;0.10;0.10;;;;;;;;;;5029594;28;20338;-72
2021/12/01 12:16:43;;;;;;;0.00;0.00;;;;;;;;;;5029486;28;20021;-72
2021/12/01 12:19:09;;;;;;;0.10;0.10;;;;;;;;;;5030201;28;20044;-72
2021/12/01 12:21:51;;;;;;;0.00;0.00;;;;;;;;;;5029508;28;20050;-72
2021/12/01 12:24:24;;;;;;;0.05;0.05;;;;;;;;;;5039475;28;20029;-73
2021/12/01 12:27:00;;;;;;;0.05;0.05;;;;;;;;;;5034230;28;20419;-72
2021/12/01 12:29:28;;;;;;;0.28;0.28;;;;;;;;;;5044368;28;20082;-72
2021/12/01 12:32:14;;;;;;;0.00;0.00;;;;;;;;;;5047839;28;20035;-72
2021/12/01 12:34:53;;;;;;;0.00;0.00;;;;;;;;;;5029079;28;20029;-72
2021/12/01 12:37:23;;;;;;;0.25;0.25;;;;;;;;;;5039906;28;20035;-72
2021/12/01 12:39:51;;;;;;;0.10;0.10;;;;;;;;;;5032585;28;20039;-72
2021/12/01 12:42:17;;;;;;;0.00;0.00;;;;;;;;;;5031440;28;20014;-73
2021/12/01 12:44:47;;;;;;;0.93;0.30;;;;;;;;;;5045011;28;20059;-72
2021/12/01 12:47:24;;;;;;;0.10;0.10;;;;;;;;;;5047581;28;20066;-72
2021/12/01 12:49:51;;;;;;;0.03;0.03;;;;;;;;;;5032656;28;20028;-72
2021/12/01 12:52:26;;;;;;;0.03;0.03;;;;;;;;;;5029191;28;20022;-72
2021/12/01 12:54:52;;;;;;;0.00;0.00;;;;;;;;;;5033623;28;20064;-73
2021/12/01 12:57:18;;;;;;;0.35;0.15;;;;;;;;;;5029099;28;20499;-72
2021/12/01 12:59:44;;;;;;;0.00;0.00;;;;;;;;;;5039933;28;20037;-73
2021/12/01 13:02:10;;;;;;;0.00;0.00;;;;;;;;;;5036798;28;20076;-72
2021/12/01 13:04:59;;;;;;;0.00;0.00;;;;;;;;;;5028195;28;20036;-72
2021/12/01 13:07:41;;;;;;;0.00;0.00;;;;;;;;;;5030683;28;20132;-72
2021/12/01 13:10:09;;;;;;;0.00;0.00;;;;;;;;;;5033505;28;20021;-72
2021/12/01 13:12:44;;;;;;;0.00;0.00;;;;;;;;;;5032793;28;20017;-72
2021/12/01 13:15:18;;;;;;;0.00;0.00;;;;;;;;;;5033624;28;20365;-72
2021/12/01 13:17:48;;;;;;;0.00;0.00;;;;;;;;;;5033128;28;20029;-72
2021/12/01 13:20:13;;;;;;;0.10;0.10;;;;;;;;;;5032468;28;20032;-73
2021/12/01 13:22:39;;;;;;;0.20;0.20;;;;;;;;;;5033726;28;20045;-72
2021/12/01 13:25:07;;;;;;;0.00;0.00;;;;;;;;;;5046511;28;20037;-73
2021/12/01 13:27:43;;;;;;;0.05;0.05;;;;;;;;;;5042928;28;20029;-72
2021/12/01 13:30:12;;;;;;;0.00;0.00;;;;;;;;;;5032931;28;20049;-72
2021/12/01 13:32:38;;;;;;;0.10;0.10;;;;;;;;;;5033893;28;20104;-72
2021/12/01 13:35:04;;;;;;;0.10;0.10;;;;;;;;;;5040066;28;20041;-75
2021/12/01 13:37:30;;;;;;;0.10;0.10;;;;;;;;;;5036105;28;20026;-73
2021/12/01 13:39:56;;;;;;;0.05;0.05;;;;;;;;;;5042406;28;20391;-73
2021/12/01 13:42:24;;;;;;;0.45;0.45;;;;;;;;;;5034489;28;20052;-73
2021/12/01 13:44:51;;;;;;;0.10;0.10;;;;;;;;;;5045620;28;20036;-73
2021/12/01 13:47:18;;;;;;;0.28;0.20;;;;;;;;;;5044562;28;20057;-73
2021/12/01 13:49:50;;;;;;;0.60;0.30;;;;;;;;;;5047516;28;20025;-73
2021/12/01 13:52:27;;;;;;;0.00;0.00;;;;;;;;;;5038383;28;20387;-73
2021/12/01 13:54:53;;;;;;;0.05;0.05;;;;;;;;;;5038614;28;20032;-73
2021/12/01 13:57:19;;;;;;;0.30;0.20;;;;;;;;;;5046674;28;20033;-73
2021/12/01 13:59:49;;;;;;;0.10;0.10;;;;;;;;;;5051891;28;20033;-73
2021/12/01 14:02:22;;;;;;;0.00;0.00;;;;;;;;;;5041072;28;20065;-73
2021/12/01 14:04:49;;;;;;;0.15;0.15;;;;;;;;;;5032116;28;20861;-73
2021/12/01 14:07:15;;;;;;;0.20;0.20;;;;;;;;;;5032585;28;20029;-73
2021/12/01 14:09:54;;;;;;;0.28;0.28;;;;;;;;;;5031552;28;20026;-73
2021/12/01 14:12:24;;;;;;;0.05;0.05;;;;;;;;;;5041998;28;20083;-74
2021/12/01 14:14:50;;;;;;;0.03;0.03;;;;;;;;;;5038463;28;20033;-73
2021/12/01 14:17:17;;;;;;;0.00;0.00;;;;;;;;;;5035846;28;20476;-74
2021/12/01 14:19:43;;;;;;;0.15;0.10;;;;;;;;;;5042504;28;20084;-74
2021/12/01 14:22:11;;;;;;;0.30;0.30;;;;;;;;;;5039980;28;20057;-73
2021/12/01 14:24:37;;;;;;;0.00;0.00;;;;;;;;;;5032583;28;20488;-74
2021/12/01 14:27:07;;;;;;;0.03;0.03;;;;;;;;;;5041718;28;20104;-74
2021/12/01 14:29:38;;;;;;;0.10;0.10;;;;;;;;;;5039730;28;20078;-70
2021/12/01 14:32:05;;;;;;;0.40;0.40;;;;;;;;;;5036176;28;20430;-72
2021/12/01 14:34:33;;;;;;;0.00;0.00;;;;;;;;;;5041234;28;20029;-73
2021/12/01 14:37:00;;;;;;;0.28;0.28;;;;;;;;;;5041776;28;20037;-74
2021/12/01 14:39:26;;;;;;;0.00;0.00;;;;;;;;;;5033244;28;20764;-76
2021/12/01 14:41:55;;;;;;;0.05;0.05;;;;;;;;;;5038613;28;20052;-75
2021/12/01 14:44:26;;;;;;;0.13;0.13;;;;;;;;;;5041612;28;20036;-74
2021/12/01 14:47:03;;;;;;;0.25;0.25;;;;;;;;;;5042643;28;20680;-74
2021/12/01 14:49:36;;;;;;;0.00;0.00;;;;;;;;;;5033128;28;20026;-74